sensor_id;sensor_type;location;lat;lon;timestamp;P1;durP1;ratioP1;P2;durP2;ratioP2
16967;SDS011;64862;54.398;10.126;2022-11-15T00:01:42;77.28;;;37.85;;
16967;SDS011;64862;54.398;10.126;2022-11-15T00:04:29;75.80;;;38.50;;
16967;SDS011;64862;54.398;10.126;2022-11-15T00:07:15;80.10;;;38.92;;
16967;SDS011;64862;54.398;10.126;2022-11-15T00:10:00;74.13;;;37.90;;
16967;SDS011;64862;54.398;10.126;2022-11-15T00:12:46;87.00;;;39.67;;
16967;SDS011;64862;54.398;10.126;2022-11-15T00:15:33;79.45;;;39.13;;
16967;SDS011;64862;54.398;10.126;2022-11-15T00:18:19;75.65;;;37.53;;
16967;SDS011;64862;54.398;10.126;2022-11-15T00:21:07;74.90;;;37.97;;
16967;SDS011;64862;54.398;10.126;2022-11-15T00:23:54;74.35;;;37.33;;
16967;SDS011;64862;54.398;10.126;2022-11-15T00:26:43;78.97;;;37.42;;
16967;SDS011;64862;54.398;10.126;2022-11-15T00:29:28;73.15;;;37.05;;
16967;SDS011;64862;54.398;10.126;2022-11-15T00:32:14;70.65;;;35.67;;
16967;SDS011;64862;54.398;10.126;2022-11-15T00:35:00;72.43;;;36.72;;
16967;SDS011;64862;54.398;10.126;2022-11-15T00:37:47;72.20;;;34.53;;
16967;SDS011;64862;54.398;10.126;2022-11-15T00:40:32;66.80;;;34.83;;
16967;SDS011;64862;54.398;10.126;2022-11-15T00:43:18;62.97;;;32.30;;
16967;SDS011;64862;54.398;10.126;2022-11-15T00:46:03;63.45;;;33.88;;
16967;SDS011;64862;54.398;10.126;2022-11-15T00:48:49;60.90;;;31.10;;
16967;SDS011;64862;54.398;10.126;2022-11-15T00:51:35;66.20;;;32.22;;
16967;SDS011;64862;54.398;10.126;2022-11-15T00:54:22;61.90;;;31.70;;
16967;SDS011;64862;54.398;10.126;2022-11-15T00:57:07;63.33;;;33.28;;
16967;SDS011;64862;54.398;10.126;2022-11-15T00:59:53;56.67;;;30.58;;
16967;SDS011;64862;54.398;10.126;2022-11-15T01:02:39;61.55;;;32.42;;
16967;SDS011;64862;54.398;10.126;2022-11-15T01:05:24;60.92;;;32.58;;
16967;SDS011;64862;54.398;10.126;2022-11-15T01:08:11;66.50;;;34.20;;
16967;SDS011;64862;54.398;10.126;2022-11-15T01:11:01;58.67;;;32.58;;
16967;SDS011;64862;54.398;10.126;2022-11-15T01:13:47;66.15;;;34.40;;
16967;SDS011;64862;54.398;10.126;2022-11-15T01:16:33;61.63;;;34.50;;
16967;SDS011;64862;54.398;10.126;2022-11-15T01:19:19;64.35;;;34.22;;
16967;SDS011;64862;54.398;10.126;2022-11-15T01:22:04;62.85;;;33.65;;
16967;SDS011;64862;54.398;10.126;2022-11-15T01:24:50;58.97;;;32.50;;
16967;SDS011;64862;54.398;10.126;2022-11-15T01:27:37;61.60;;;34.03;;
16967;SDS011;64862;54.398;10.126;2022-11-15T01:30:22;65.78;;;34.10;;
16967;SDS011;64862;54.398;10.126;2022-11-15T01:33:08;65.10;;;34.20;;
16967;SDS011;64862;54.398;10.126;2022-11-15T01:35:53;63.92;;;33.67;;
16967;SDS011;64862;54.398;10.126;2022-11-15T01:38:39;60.35;;;31.38;;
16967;SDS011;64862;54.398;10.126;2022-11-15T01:41:26;64.30;;;32.95;;
16967;SDS011;64862;54.398;10.126;2022-11-15T01:44:36;61.05;;;33.25;;
16967;SDS011;64862;54.398;10.126;2022-11-15T01:47:25;63.85;;;34.28;;
16967;SDS011;64862;54.398;10.126;2022-11-15T01:50:15;57.40;;;32.30;;
16967;SDS011;64862;54.398;10.126;2022-11-15T01:53:04;60.28;;;31.33;;
16967;SDS011;64862;54.398;10.126;2022-11-15T01:55:50;61.13;;;31.85;;
16967;SDS011;64862;54.398;10.126;2022-11-15T01:58:36;56.45;;;31.35;;
16967;SDS011;64862;54.398;10.126;2022-11-15T02:01:24;57.55;;;31.80;;
16967;SDS011;64862;54.398;10.126;2022-11-15T02:04:11;60.50;;;31.42;;
16967;SDS011;64862;54.398;10.126;2022-11-15T02:07:00;60.53;;;31.52;;
16967;SDS011;64862;54.398;10.126;2022-11-15T02:09:48;58.30;;;32.00;;
16967;SDS011;64862;54.398;10.126;2022-11-15T02:12:35;58.17;;;30.73;;
16967;SDS011;64862;54.398;10.126;2022-11-15T02:15:22;59.65;;;31.35;;
16967;SDS011;64862;54.398;10.126;2022-11-15T02:18:15;55.53;;;30.75;;
16967;SDS011;64862;54.398;10.126;2022-11-15T02:21:09;53.75;;;29.98;;
16967;SDS011;64862;54.398;10.126;2022-11-15T02:30:30;55.60;;;30.75;;
16967;SDS011;64862;54.398;10.126;2022-11-15T02:33:26;55.47;;;30.70;;
16967;SDS011;64862;54.398;10.126;2022-11-15T02:36:18;57.97;;;31.05;;
16967;SDS011;64862;54.398;10.126;2022-11-15T02:39:10;58.80;;;32.17;;
16967;SDS011;64862;54.398;10.126;2022-11-15T02:42:06;55.80;;;30.50;;
16967;SDS011;64862;54.398;10.126;2022-11-15T02:45:17;54.95;;;30.73;;
16967;SDS011;64862;54.398;10.126;2022-11-15T02:48:07;54.97;;;30.77;;
16967;SDS011;64862;54.398;10.126;2022-11-15T02:50:55;56.17;;;31.77;;
16967;SDS011;64862;54.398;10.126;2022-11-15T02:53:42;57.28;;;31.33;;
16967;SDS011;64862;54.398;10.126;2022-11-15T02:56:28;55.63;;;31.73;;
16967;SDS011;64862;54.398;10.126;2022-11-15T03:02:29;54.13;;;30.63;;
16967;SDS011;64862;54.398;10.126;2022-11-15T03:05:30;56.38;;;31.33;;
16967;SDS011;64862;54.398;10.126;2022-11-15T03:08:22;55.60;;;30.75;;
16967;SDS011;64862;54.398;10.126;2022-11-15T03:11:16;53.28;;;30.05;;
16967;SDS011;64862;54.398;10.126;2022-11-15T03:14:05;60.72;;;32.60;;
16967;SDS011;64862;54.398;10.126;2022-11-15T03:17:03;58.95;;;31.80;;
16967;SDS011;64862;54.398;10.126;2022-11-15T03:19:56;55.17;;;31.05;;
16967;SDS011;64862;54.398;10.126;2022-11-15T03:22:46;55.63;;;30.83;;
16967;SDS011;64862;54.398;10.126;2022-11-15T03:25:34;52.72;;;31.02;;
16967;SDS011;64862;54.398;10.126;2022-11-15T03:28:25;52.47;;;30.40;;
16967;SDS011;64862;54.398;10.126;2022-11-15T03:31:16;55.08;;;31.60;;
16967;SDS011;64862;54.398;10.126;2022-11-15T03:34:26;54.65;;;31.20;;
16967;SDS011;64862;54.398;10.126;2022-11-15T03:37:14;57.45;;;31.80;;
16967;SDS011;64862;54.398;10.126;2022-11-15T03:40:03;56.00;;;31.58;;
16967;SDS011;64862;54.398;10.126;2022-11-15T03:42:51;56.00;;;31.77;;
16967;SDS011;64862;54.398;10.126;2022-11-15T03:45:46;58.17;;;32.47;;
16967;SDS011;64862;54.398;10.126;2022-11-15T03:48:37;56.03;;;32.00;;
16967;SDS011;64862;54.398;10.126;2022-11-15T03:51:27;61.10;;;31.85;;
16967;SDS011;64862;54.398;10.126;2022-11-15T03:54:14;56.72;;;32.15;;
16967;SDS011;64862;54.398;10.126;2022-11-15T03:57:01;60.53;;;32.17;;
16967;SDS011;64862;54.398;10.126;2022-11-15T03:59:47;56.45;;;31.02;;
16967;SDS011;64862;54.398;10.126;2022-11-15T04:02:32;57.78;;;31.55;;
16967;SDS011;64862;54.398;10.126;2022-11-15T04:05:18;54.55;;;30.75;;
16967;SDS011;64862;54.398;10.126;2022-11-15T04:08:03;54.20;;;30.95;;
16967;SDS011;64862;54.398;10.126;2022-11-15T04:10:49;57.97;;;32.03;;
16967;SDS011;64862;54.398;10.126;2022-11-15T04:13:36;56.10;;;30.73;;
16967;SDS011;64862;54.398;10.126;2022-11-15T04:16:22;56.13;;;31.77;;
16967;SDS011;64862;54.398;10.126;2022-11-15T04:19:10;55.80;;;31.55;;
16967;SDS011;64862;54.398;10.126;2022-11-15T04:22:13;60.60;;;32.42;;
16967;SDS011;64862;54.398;10.126;2022-11-15T04:25:16;55.95;;;32.63;;
16967;SDS011;64862;54.398;10.126;2022-11-15T04:28:02;56.47;;;30.88;;
16967;SDS011;64862;54.398;10.126;2022-11-15T04:30:48;60.05;;;31.60;;
16967;SDS011;64862;54.398;10.126;2022-11-15T04:33:34;55.33;;;31.48;;
16967;SDS011;64862;54.398;10.126;2022-11-15T04:36:19;56.33;;;31.40;;
16967;SDS011;64862;54.398;10.126;2022-11-15T04:39:23;60.80;;;32.38;;
16967;SDS011;64862;54.398;10.126;2022-11-15T04:42:12;56.25;;;31.30;;
16967;SDS011;64862;54.398;10.126;2022-11-15T04:44:57;56.60;;;31.88;;
16967;SDS011;64862;54.398;10.126;2022-11-15T04:47:45;60.40;;;33.35;;
16967;SDS011;64862;54.398;10.126;2022-11-15T04:50:31;61.17;;;32.20;;
16967;SDS011;64862;54.398;10.126;2022-11-15T04:53:16;56.80;;;31.48;;
16967;SDS011;64862;54.398;10.126;2022-11-15T04:56:02;57.80;;;32.97;;
16967;SDS011;64862;54.398;10.126;2022-11-15T04:58:48;61.60;;;33.42;;
16967;SDS011;64862;54.398;10.126;2022-11-15T05:01:33;58.90;;;33.03;;
16967;SDS011;64862;54.398;10.126;2022-11-15T05:04:20;62.50;;;33.33;;
16967;SDS011;64862;54.398;10.126;2022-11-15T05:07:05;61.20;;;34.30;;
16967;SDS011;64862;54.398;10.126;2022-11-15T05:09:51;62.28;;;33.22;;
16967;SDS011;64862;54.398;10.126;2022-11-15T05:12:36;61.47;;;33.63;;
16967;SDS011;64862;54.398;10.126;2022-11-15T05:15:22;59.40;;;32.33;;
16967;SDS011;64862;54.398;10.126;2022-11-15T05:18:07;58.75;;;32.90;;
16967;SDS011;64862;54.398;10.126;2022-11-15T05:20:54;57.22;;;32.35;;
16967;SDS011;64862;54.398;10.126;2022-11-15T05:23:40;58.30;;;32.45;;
16967;SDS011;64862;54.398;10.126;2022-11-15T05:26:26;59.38;;;33.58;;
16967;SDS011;64862;54.398;10.126;2022-11-15T05:29:12;61.53;;;33.13;;
16967;SDS011;64862;54.398;10.126;2022-11-15T05:31:58;52.72;;;30.67;;
16967;SDS011;64862;54.398;10.126;2022-11-15T05:34:43;56.83;;;32.25;;
16967;SDS011;64862;54.398;10.126;2022-11-15T05:37:31;58.10;;;33.17;;
16967;SDS011;64862;54.398;10.126;2022-11-15T05:40:17;58.17;;;32.75;;
16967;SDS011;64862;54.398;10.126;2022-11-15T05:43:02;60.78;;;32.90;;
16967;SDS011;64862;54.398;10.126;2022-11-15T05:45:50;52.38;;;30.92;;
16967;SDS011;64862;54.398;10.126;2022-11-15T05:48:35;60.25;;;33.35;;
16967;SDS011;64862;54.398;10.126;2022-11-15T05:51:25;57.33;;;32.35;;
16967;SDS011;64862;54.398;10.126;2022-11-15T05:54:15;70.07;;;37.03;;
16967;SDS011;64862;54.398;10.126;2022-11-15T05:57:02;60.20;;;32.50;;
16967;SDS011;64862;54.398;10.126;2022-11-15T05:59:49;60.80;;;33.05;;
16967;SDS011;64862;54.398;10.126;2022-11-15T06:02:35;57.75;;;32.03;;
16967;SDS011;64862;54.398;10.126;2022-11-15T06:05:20;61.13;;;33.08;;
16967;SDS011;64862;54.398;10.126;2022-11-15T06:08:06;60.25;;;35.00;;
16967;SDS011;64862;54.398;10.126;2022-11-15T06:10:53;54.67;;;32.10;;
16967;SDS011;64862;54.398;10.126;2022-11-15T06:13:38;52.33;;;30.42;;
16967;SDS011;64862;54.398;10.126;2022-11-15T06:16:24;51.00;;;29.58;;
16967;SDS011;64862;54.398;10.126;2022-11-15T06:19:09;44.70;;;27.13;;
16967;SDS011;64862;54.398;10.126;2022-11-15T06:21:55;57.47;;;31.40;;
16967;SDS011;64862;54.398;10.126;2022-11-15T06:24:40;47.58;;;28.38;;
16967;SDS011;64862;54.398;10.126;2022-11-15T06:27:28;66.28;;;39.13;;
16967;SDS011;64862;54.398;10.126;2022-11-15T06:30:14;54.55;;;33.10;;
16967;SDS011;64862;54.398;10.126;2022-11-15T06:33:00;52.67;;;30.55;;
16967;SDS011;64862;54.398;10.126;2022-11-15T06:35:46;43.58;;;27.50;;
16967;SDS011;64862;54.398;10.126;2022-11-15T06:38:32;45.88;;;26.13;;
16967;SDS011;64862;54.398;10.126;2022-11-15T06:41:20;44.85;;;26.80;;
16967;SDS011;64862;54.398;10.126;2022-11-15T06:44:07;44.60;;;25.83;;
16967;SDS011;64862;54.398;10.126;2022-11-15T06:46:52;42.78;;;26.10;;
16967;SDS011;64862;54.398;10.126;2022-11-15T06:49:38;42.17;;;26.15;;
16967;SDS011;64862;54.398;10.126;2022-11-15T06:52:23;43.97;;;26.23;;
16967;SDS011;64862;54.398;10.126;2022-11-15T06:55:09;42.00;;;25.67;;
16967;SDS011;64862;54.398;10.126;2022-11-15T06:57:55;43.40;;;26.60;;
16967;SDS011;64862;54.398;10.126;2022-11-15T07:00:45;43.38;;;25.13;;
16967;SDS011;64862;54.398;10.126;2022-11-15T07:03:30;45.47;;;26.50;;
16967;SDS011;64862;54.398;10.126;2022-11-15T07:06:15;40.80;;;25.30;;
16967;SDS011;64862;54.398;10.126;2022-11-15T07:09:01;43.47;;;25.75;;
16967;SDS011;64862;54.398;10.126;2022-11-15T07:11:47;43.08;;;25.35;;
16967;SDS011;64862;54.398;10.126;2022-11-15T07:14:34;41.40;;;25.17;;
16967;SDS011;64862;54.398;10.126;2022-11-15T07:17:21;43.25;;;25.58;;
16967;SDS011;64862;54.398;10.126;2022-11-15T07:20:07;40.13;;;24.67;;
16967;SDS011;64862;54.398;10.126;2022-11-15T07:22:58;43.38;;;24.90;;
16967;SDS011;64862;54.398;10.126;2022-11-15T07:25:45;41.10;;;24.80;;
16967;SDS011;64862;54.398;10.126;2022-11-15T07:28:31;44.72;;;26.67;;
16967;SDS011;64862;54.398;10.126;2022-11-15T07:31:16;40.63;;;25.38;;
16967;SDS011;64862;54.398;10.126;2022-11-15T07:34:03;42.75;;;25.70;;
16967;SDS011;64862;54.398;10.126;2022-11-15T07:36:49;38.47;;;24.25;;
16967;SDS011;64862;54.398;10.126;2022-11-15T07:39:35;41.88;;;25.92;;
16967;SDS011;64862;54.398;10.126;2022-11-15T07:42:21;43.80;;;26.20;;
16967;SDS011;64862;54.398;10.126;2022-11-15T07:45:24;41.97;;;24.98;;
16967;SDS011;64862;54.398;10.126;2022-11-15T07:48:10;39.00;;;24.75;;
16967;SDS011;64862;54.398;10.126;2022-11-15T07:51:00;44.38;;;25.25;;
16967;SDS011;64862;54.398;10.126;2022-11-15T07:53:45;43.30;;;25.45;;
16967;SDS011;64862;54.398;10.126;2022-11-15T07:56:31;39.55;;;24.95;;
16967;SDS011;64862;54.398;10.126;2022-11-15T07:59:16;38.83;;;24.02;;
16967;SDS011;64862;54.398;10.126;2022-11-15T08:02:02;41.97;;;24.77;;
16967;SDS011;64862;54.398;10.126;2022-11-15T08:04:48;44.60;;;25.15;;
16967;SDS011;64862;54.398;10.126;2022-11-15T08:07:35;40.28;;;24.48;;
16967;SDS011;64862;54.398;10.126;2022-11-15T08:10:21;39.08;;;23.25;;
16967;SDS011;64862;54.398;10.126;2022-11-15T08:13:08;38.13;;;23.75;;
16967;SDS011;64862;54.398;10.126;2022-11-15T08:15:58;42.83;;;25.20;;
16967;SDS011;64862;54.398;10.126;2022-11-15T08:18:44;37.45;;;22.90;;
16967;SDS011;64862;54.398;10.126;2022-11-15T08:21:30;38.25;;;23.48;;
16967;SDS011;64862;54.398;10.126;2022-11-15T08:24:17;38.08;;;22.80;;
16967;SDS011;64862;54.398;10.126;2022-11-15T08:27:03;40.65;;;23.83;;
16967;SDS011;64862;54.398;10.126;2022-11-15T08:29:58;40.23;;;22.13;;
16967;SDS011;64862;54.398;10.126;2022-11-15T08:32:45;37.47;;;23.65;;
16967;SDS011;64862;54.398;10.126;2022-11-15T08:35:31;39.58;;;23.27;;
16967;SDS011;64862;54.398;10.126;2022-11-15T08:38:16;38.88;;;23.88;;
16967;SDS011;64862;54.398;10.126;2022-11-15T08:41:04;41.85;;;24.83;;
16967;SDS011;64862;54.398;10.126;2022-11-15T08:43:50;43.65;;;25.02;;
16967;SDS011;64862;54.398;10.126;2022-11-15T08:46:36;38.72;;;23.52;;
16967;SDS011;64862;54.398;10.126;2022-11-15T08:49:22;40.67;;;23.20;;
16967;SDS011;64862;54.398;10.126;2022-11-15T08:52:07;36.63;;;22.75;;
16967;SDS011;64862;54.398;10.126;2022-11-15T08:54:53;35.72;;;22.20;;
16967;SDS011;64862;54.398;10.126;2022-11-15T08:57:39;35.53;;;21.73;;
16967;SDS011;64862;54.398;10.126;2022-11-15T09:00:25;36.83;;;22.08;;
16967;SDS011;64862;54.398;10.126;2022-11-15T09:03:11;37.20;;;21.88;;
16967;SDS011;64862;54.398;10.126;2022-11-15T09:05:57;37.20;;;21.55;;
16967;SDS011;64862;54.398;10.126;2022-11-15T09:08:43;33.78;;;21.55;;
16967;SDS011;64862;54.398;10.126;2022-11-15T09:11:29;32.50;;;20.90;;
16967;SDS011;64862;54.398;10.126;2022-11-15T09:14:16;33.80;;;21.13;;
16967;SDS011;64862;54.398;10.126;2022-11-15T09:17:01;34.10;;;20.50;;
16967;SDS011;64862;54.398;10.126;2022-11-15T09:19:47;32.45;;;21.02;;
16967;SDS011;64862;54.398;10.126;2022-11-15T09:22:33;39.63;;;20.52;;
16967;SDS011;64862;54.398;10.126;2022-11-15T09:25:20;32.42;;;19.60;;
16967;SDS011;64862;54.398;10.126;2022-11-15T09:28:05;33.33;;;19.85;;
16967;SDS011;64862;54.398;10.126;2022-11-15T09:30:55;32.47;;;20.35;;
16967;SDS011;64862;54.398;10.126;2022-11-15T09:33:42;30.17;;;19.40;;
16967;SDS011;64862;54.398;10.126;2022-11-15T09:36:28;30.58;;;19.88;;
16967;SDS011;64862;54.398;10.126;2022-11-15T09:39:14;33.53;;;19.77;;
16967;SDS011;64862;54.398;10.126;2022-11-15T09:45:12;32.30;;;19.08;;
16967;SDS011;64862;54.398;10.126;2022-11-15T09:48:15;33.20;;;20.05;;
16967;SDS011;64862;54.398;10.126;2022-11-15T09:51:18;30.80;;;19.63;;
16967;SDS011;64862;54.398;10.126;2022-11-15T09:53:55;30.67;;;19.33;;
16967;SDS011;64862;54.398;10.126;2022-11-15T09:56:32;34.40;;;20.27;;
16967;SDS011;64862;54.398;10.126;2022-11-15T09:59:10;38.70;;;19.92;;
16967;SDS011;64862;54.398;10.126;2022-11-15T10:01:49;31.05;;;19.10;;
16967;SDS011;64862;54.398;10.126;2022-11-15T10:04:27;33.88;;;19.65;;
16967;SDS011;64862;54.398;10.126;2022-11-15T10:09:42;27.88;;;18.55;;
16967;SDS011;64862;54.398;10.126;2022-11-15T10:12:13;32.22;;;19.20;;
16967;SDS011;64862;54.398;10.126;2022-11-15T10:14:42;27.92;;;18.10;;
16967;SDS011;64862;54.398;10.126;2022-11-15T10:17:22;28.85;;;18.40;;
16967;SDS011;64862;54.398;10.126;2022-11-15T10:20:05;29.88;;;18.77;;
16967;SDS011;64862;54.398;10.126;2022-11-15T10:22:38;30.55;;;18.30;;
16967;SDS011;64862;54.398;10.126;2022-11-15T10:25:12;27.95;;;18.02;;
16967;SDS011;64862;54.398;10.126;2022-11-15T10:27:44;27.75;;;18.05;;
16967;SDS011;64862;54.398;10.126;2022-11-15T10:30:17;29.83;;;18.98;;
16967;SDS011;64862;54.398;10.126;2022-11-15T10:32:45;29.52;;;18.38;;
16967;SDS011;64862;54.398;10.126;2022-11-15T10:35:20;28.92;;;18.48;;
16967;SDS011;64862;54.398;10.126;2022-11-15T10:37:49;30.23;;;19.10;;
16967;SDS011;64862;54.398;10.126;2022-11-15T10:40:18;29.90;;;18.52;;
16967;SDS011;64862;54.398;10.126;2022-11-15T10:42:47;29.90;;;18.90;;
16967;SDS011;64862;54.398;10.126;2022-11-15T10:45:26;28.08;;;17.85;;
16967;SDS011;64862;54.398;10.126;2022-11-15T10:47:55;26.15;;;17.52;;
16967;SDS011;64862;54.398;10.126;2022-11-15T10:50:48;28.42;;;18.08;;
16967;SDS011;64862;54.398;10.126;2022-11-15T10:53:21;29.08;;;17.48;;
16967;SDS011;64862;54.398;10.126;2022-11-15T10:55:52;25.17;;;17.35;;
16967;SDS011;64862;54.398;10.126;2022-11-15T10:58:22;25.13;;;17.05;;
16967;SDS011;64862;54.398;10.126;2022-11-15T11:01:05;27.35;;;16.85;;
16967;SDS011;64862;54.398;10.126;2022-11-15T11:03:37;27.90;;;17.58;;
16967;SDS011;64862;54.398;10.126;2022-11-15T11:06:07;27.30;;;17.08;;
16967;SDS011;64862;54.398;10.126;2022-11-15T11:08:36;26.45;;;17.48;;
16967;SDS011;64862;54.398;10.126;2022-11-15T11:11:04;26.25;;;17.77;;
16967;SDS011;64862;54.398;10.126;2022-11-15T11:13:32;25.30;;;16.95;;
16967;SDS011;64862;54.398;10.126;2022-11-15T11:16:09;25.50;;;16.75;;
16967;SDS011;64862;54.398;10.126;2022-11-15T11:18:58;28.70;;;17.30;;
16967;SDS011;64862;54.398;10.126;2022-11-15T11:21:35;27.55;;;17.95;;
16967;SDS011;64862;54.398;10.126;2022-11-15T11:24:17;25.70;;;16.60;;
16967;SDS011;64862;54.398;10.126;2022-11-15T11:26:55;29.23;;;17.88;;
16967;SDS011;64862;54.398;10.126;2022-11-15T11:29:34;35.72;;;21.52;;
16967;SDS011;64862;54.398;10.126;2022-11-15T11:32:15;48.67;;;27.20;;
16967;SDS011;64862;54.398;10.126;2022-11-15T11:34:56;29.80;;;19.05;;
16967;SDS011;64862;54.398;10.126;2022-11-15T11:37:30;28.05;;;18.52;;
16967;SDS011;64862;54.398;10.126;2022-11-15T11:40:05;29.13;;;18.23;;
16967;SDS011;64862;54.398;10.126;2022-11-15T11:42:44;28.00;;;19.40;;
16967;SDS011;64862;54.398;10.126;2022-11-15T11:45:29;28.67;;;18.35;;
16967;SDS011;64862;54.398;10.126;2022-11-15T11:48:21;30.17;;;16.98;;
16967;SDS011;64862;54.398;10.126;2022-11-15T11:50:57;27.67;;;16.77;;
16967;SDS011;64862;54.398;10.126;2022-11-15T11:53:31;26.70;;;18.07;;
16967;SDS011;64862;54.398;10.126;2022-11-15T11:56:04;26.60;;;18.15;;
16967;SDS011;64862;54.398;10.126;2022-11-15T11:58:38;28.75;;;18.45;;
16967;SDS011;64862;54.398;10.126;2022-11-15T12:01:10;27.80;;;18.00;;
16967;SDS011;64862;54.398;10.126;2022-11-15T12:03:43;28.70;;;17.38;;
16967;SDS011;64862;54.398;10.126;2022-11-15T12:06:17;25.35;;;16.77;;
16967;SDS011;64862;54.398;10.126;2022-11-15T12:08:52;24.58;;;17.17;;
16967;SDS011;64862;54.398;10.126;2022-11-15T12:13:55;28.83;;;17.50;;
16967;SDS011;64862;54.398;10.126;2022-11-15T12:18:56;25.15;;;16.38;;
16967;SDS011;64862;54.398;10.126;2022-11-15T12:21:29;25.00;;;16.30;;
16967;SDS011;64862;54.398;10.126;2022-11-15T12:24:05;27.40;;;15.82;;
16967;SDS011;64862;54.398;10.126;2022-11-15T12:26:39;26.40;;;17.05;;
16967;SDS011;64862;54.398;10.126;2022-11-15T12:29:14;25.70;;;16.38;;
16967;SDS011;64862;54.398;10.126;2022-11-15T12:31:48;23.95;;;16.65;;
16967;SDS011;64862;54.398;10.126;2022-11-15T12:34:29;25.65;;;16.33;;
16967;SDS011;64862;54.398;10.126;2022-11-15T12:43:09;26.58;;;16.05;;
16967;SDS011;64862;54.398;10.126;2022-11-15T12:45:55;24.30;;;15.52;;
16967;SDS011;64862;54.398;10.126;2022-11-15T12:57:33;23.85;;;14.82;;
16967;SDS011;64862;54.398;10.126;2022-11-15T13:06:07;23.25;;;14.90;;
16967;SDS011;64862;54.398;10.126;2022-11-15T13:08:55;23.95;;;14.77;;
16967;SDS011;64862;54.398;10.126;2022-11-15T13:17:32;24.58;;;14.60;;
16967;SDS011;64862;54.398;10.126;2022-11-15T13:20:20;22.40;;;14.27;;
16967;SDS011;64862;54.398;10.126;2022-11-15T13:22:50;21.52;;;14.82;;
16967;SDS011;64862;54.398;10.126;2022-11-15T13:25:19;25.95;;;14.88;;
16967;SDS011;64862;54.398;10.126;2022-11-15T13:28:18;22.85;;;14.50;;
16967;SDS011;64862;54.398;10.126;2022-11-15T13:30:49;23.58;;;14.50;;
16967;SDS011;64862;54.398;10.126;2022-11-15T13:33:23;28.70;;;14.90;;
16967;SDS011;64862;54.398;10.126;2022-11-15T13:35:54;23.33;;;14.83;;
16967;SDS011;64862;54.398;10.126;2022-11-15T13:38:27;23.13;;;14.85;;
16967;SDS011;64862;54.398;10.126;2022-11-15T13:40:55;23.00;;;14.55;;
16967;SDS011;64862;54.398;10.126;2022-11-15T13:43:26;24.00;;;14.90;;
16967;SDS011;64862;54.398;10.126;2022-11-15T13:46:04;20.75;;;13.63;;
16967;SDS011;64862;54.398;10.126;2022-11-15T13:48:33;21.58;;;15.05;;
16967;SDS011;64862;54.398;10.126;2022-11-15T13:51:01;24.73;;;15.30;;
16967;SDS011;64862;54.398;10.126;2022-11-15T13:53:30;21.98;;;15.13;;
16967;SDS011;64862;54.398;10.126;2022-11-15T13:55:58;30.25;;;17.20;;
16967;SDS011;64862;54.398;10.126;2022-11-15T13:58:25;23.65;;;15.63;;
16967;SDS011;64862;54.398;10.126;2022-11-15T14:00:58;24.13;;;14.98;;
16967;SDS011;64862;54.398;10.126;2022-11-15T14:03:27;29.08;;;16.55;;
16967;SDS011;64862;54.398;10.126;2022-11-15T14:06:04;25.42;;;15.25;;
16967;SDS011;64862;54.398;10.126;2022-11-15T14:08:35;24.55;;;14.98;;
16967;SDS011;64862;54.398;10.126;2022-11-15T14:11:10;29.23;;;17.50;;
16967;SDS011;64862;54.398;10.126;2022-11-15T14:13:41;26.45;;;15.32;;
16967;SDS011;64862;54.398;10.126;2022-11-15T14:16:12;27.88;;;14.60;;
16967;SDS011;64862;54.398;10.126;2022-11-15T14:18:41;22.33;;;14.45;;
16967;SDS011;64862;54.398;10.126;2022-11-15T14:21:12;22.13;;;14.52;;
16967;SDS011;64862;54.398;10.126;2022-11-15T14:23:39;24.88;;;14.43;;
16967;SDS011;64862;54.398;10.126;2022-11-15T14:26:10;27.48;;;14.88;;
16967;SDS011;64862;54.398;10.126;2022-11-15T14:28:52;26.15;;;14.95;;
16967;SDS011;64862;54.398;10.126;2022-11-15T14:31:19;24.20;;;14.52;;
16967;SDS011;64862;54.398;10.126;2022-11-15T14:33:47;25.63;;;15.38;;
16967;SDS011;64862;54.398;10.126;2022-11-15T14:36:17;22.20;;;14.48;;
16967;SDS011;64862;54.398;10.126;2022-11-15T14:38:45;22.77;;;14.73;;
16967;SDS011;64862;54.398;10.126;2022-11-15T14:41:17;24.83;;;14.95;;
16967;SDS011;64862;54.398;10.126;2022-11-15T14:43:46;26.75;;;14.95;;
16967;SDS011;64862;54.398;10.126;2022-11-15T14:46:13;27.17;;;15.57;;
16967;SDS011;64862;54.398;10.126;2022-11-15T14:48:40;23.40;;;15.23;;
16967;SDS011;64862;54.398;10.126;2022-11-15T14:51:15;26.92;;;16.50;;
16967;SDS011;64862;54.398;10.126;2022-11-15T14:53:43;29.23;;;15.82;;
16967;SDS011;64862;54.398;10.126;2022-11-15T14:56:11;26.75;;;16.58;;
16967;SDS011;64862;54.398;10.126;2022-11-15T14:58:39;24.08;;;14.55;;
16967;SDS011;64862;54.398;10.126;2022-11-15T15:01:10;22.65;;;15.35;;
16967;SDS011;64862;54.398;10.126;2022-11-15T15:03:39;21.70;;;14.85;;
16967;SDS011;64862;54.398;10.126;2022-11-15T15:06:06;25.23;;;15.07;;
16967;SDS011;64862;54.398;10.126;2022-11-15T15:08:36;22.38;;;14.93;;
16967;SDS011;64862;54.398;10.126;2022-11-15T15:11:03;23.48;;;15.13;;
16967;SDS011;64862;54.398;10.126;2022-11-15T15:13:36;27.60;;;15.35;;
16967;SDS011;64862;54.398;10.126;2022-11-15T15:16:03;24.02;;;15.18;;
16967;SDS011;64862;54.398;10.126;2022-11-15T15:18:31;22.27;;;15.32;;
16967;SDS011;64862;54.398;10.126;2022-11-15T15:21:01;24.52;;;15.43;;
16967;SDS011;64862;54.398;10.126;2022-11-15T15:23:32;23.83;;;15.50;;
16967;SDS011;64862;54.398;10.126;2022-11-15T15:26:02;28.17;;;16.35;;
16967;SDS011;64862;54.398;10.126;2022-11-15T15:28:29;31.58;;;17.05;;
16967;SDS011;64862;54.398;10.126;2022-11-15T15:30:58;27.27;;;16.50;;
16967;SDS011;64862;54.398;10.126;2022-11-15T15:33:25;28.85;;;17.90;;
16967;SDS011;64862;54.398;10.126;2022-11-15T15:35:52;31.52;;;18.08;;
16967;SDS011;64862;54.398;10.126;2022-11-15T15:38:19;25.30;;;16.40;;
16967;SDS011;64862;54.398;10.126;2022-11-15T15:40:47;33.97;;;19.67;;
16967;SDS011;64862;54.398;10.126;2022-11-15T15:43:16;24.00;;;15.98;;
16967;SDS011;64862;54.398;10.126;2022-11-15T15:45:43;24.17;;;16.45;;
16967;SDS011;64862;54.398;10.126;2022-11-15T15:48:11;28.77;;;18.17;;
16967;SDS011;64862;54.398;10.126;2022-11-15T15:50:39;43.58;;;22.73;;
16967;SDS011;64862;54.398;10.126;2022-11-15T15:53:08;25.48;;;17.20;;
16967;SDS011;64862;54.398;10.126;2022-11-15T15:55:36;36.67;;;20.58;;
16967;SDS011;64862;54.398;10.126;2022-11-15T15:58:03;30.90;;;18.55;;
16967;SDS011;64862;54.398;10.126;2022-11-15T16:00:33;29.85;;;17.98;;
16967;SDS011;64862;54.398;10.126;2022-11-15T16:03:00;27.17;;;17.65;;
16967;SDS011;64862;54.398;10.126;2022-11-15T16:05:27;25.38;;;17.50;;
16967;SDS011;64862;54.398;10.126;2022-11-15T16:07:54;30.77;;;18.92;;
16967;SDS011;64862;54.398;10.126;2022-11-15T16:10:22;30.20;;;18.70;;
16967;SDS011;64862;54.398;10.126;2022-11-15T16:12:51;26.90;;;17.83;;
16967;SDS011;64862;54.398;10.126;2022-11-15T16:15:18;27.35;;;17.83;;
16967;SDS011;64862;54.398;10.126;2022-11-15T16:17:49;30.38;;;18.83;;
16967;SDS011;64862;54.398;10.126;2022-11-15T16:20:29;28.35;;;17.58;;